Schedule Details


Flight Number: CTN410
Departure: Franjo Tudman (LDZA) at 07:40
Arrival: Frankfurt/main (EDDF) at 09:15
Route: OBUTI UM19 GRZ DCT SUBEN T161 PSA

Weather Information
LDZA 081300Z VRB02KT CAVOK 20/M04 Q1026 NOSIG
EDDF 081320Z VRB04KT CAVOK 23/03 Q1023 NOSIG
Schedule Frequency

Route Map